Tiempo atmosférico en la estación meteorológica de A Coruña, A Coruña (58 m.)



Fecha
DESCASC
Temp. máxima en grados centígrados (hora)
DESCASC
Temp. mínima en grados centígrados (hora)
DESCASC
Temp. media en grados centígrados
DESCASC
Racha de viento máxima en m/sg (hora)
DESCASC
Velocidad máxima media en intervalos de 10 minutos(hora)
DESCASC
Precipitaciones diarias en mm
DESCASC
Precipitaciones de 00:00 a 06:00 en mm
DESCASC
Precipitaciones de 06:00 a 12:00 en mm
DESCASC
Precipitaciones de 12:00 a 18:00 en mm
DESCASC
Precipitaciones de 18:00 a 24:00 en mm
DESCASC
21-02-2019 19.8 (16:10) 9.5 (05:50) 14.6 9.44 (13:20) 5 (13:20) 0 0 0 0 0
20-02-2019 16.1 (16:20) 7.1 (04:00) 11.6 8.06 (11:50) 4.44 (16:10) 0 0 0 0 0
19-02-2019 12.7 (13:10) 5.3 (08:30) 9 5.28 (15:40) 3.61 (15:30) 0 0 0 0 0
18-02-2019 12.7 (16:30) 8.5 (04:40) 10.6 6.67 (20:10) 3.89 (20:10) 2.2 1.8 0.4 0 0
17-02-2019 13.7 (02:50) 9 (00:00) 11.3 8.89 (04:20) 5 (02:50) 16.8 0 0 7.4 9.4
16-02-2019 19.9 (16:20) 8.4 (00:00) 14.1 6.39 (09:50) 4.44 (09:50) 0 0 0 0 0
15-02-2019 20.6 (14:30) 12.6 (00:00) 16.6 9.17 (14:00) 5.56 (03:20) 0 0 0 0 0
14-02-2019 22.1 (16:20) 9.6 (00:00) 15.9 7.78 (14:50) 4.72 (07:30) 0 0 0 0 0
13-02-2019 18 (14:00) 6.9 (00:00) 12.5 5 (11:30) 3.61 (23:10) 0 0 0 0 0
12-02-2019 15.4 (12:40) 6 (00:00) 10.7 6.11 (08:30) 3.89 (08:30) 0 0 0 0 0
11-02-2019 13.1 (12:40) 6.6 (00:00) 9.9 8.33 (17:00) 5.83 (17:50) 0 0 0 0 0
10-02-2019 14.7 (00:30) 9.6 (00:00) 12.2 18.33 (01:50) 9.44 (05:50) 8.8 8.2 0.6 0 0
09-02-2019 14.6 (15:00) 12.2 (00:00) 13.4 17.22 (14:50) 8.61 (14:10) 0.6 0.4 0 0.2 0
08-02-2019 13.9 (17:00) 9.2 (00:00) 11.5 16.39 (11:00) 7.78 (11:50) 0 0 0 0 0
07-02-2019 14.2 (12:40) 9.6 (00:00) 11.9 9.72 (03:30) 5.83 (02:20) 0.8 0.8 0 0 0
06-02-2019 13.8 (16:50) 10 (00:00) 11.9 11.39 (17:50) 6.11 (19:40) 2 0 0 0 2
05-02-2019 15.3 (15:30) 11.2 (00:00) 13.3 9.17 (15:50) 4.72 (18:00) 0 0 0 0 0
04-02-2019 13.6 (14:20) 7.8 (00:00) 10.7 10.28 (14:10) 6.39 (14:20) 0 0 0 0 0
03-02-2019 12.1 (15:20) 4.2 (00:00) 8.2 5.56 (23:30) 3.33 (05:20) 0.2 0.2 0 0 0
02-02-2019 10.9 (11:50) 6.2 (00:00) 8.5 19.17 (05:30) 9.72 (04:30) 4.8 4.4 0 0.2 0.2
01-02-2019 10.7 (17:00) 6.2 (00:00) 8.4 26.11 (03:40) 12.78 (13:40) 16.4 2.6 6.2 5.6 2
31-01-2019 13.7 (10:30) 8.9 (00:00) 11.3 18.61 (05:30) 10.28 (05:30) 17.2 6 9.2 0.6 1.4
30-01-2019 13.2 (21:50) 8.2 (00:00) 10.7 18.33 (23:10) 9.72 (21:30) 13.8 0 0 5.8 8
29-01-2019 12.3 (11:30) 8.4 (00:00) 10.3 19.44 (11:00) 10.83 (11:00) 5 0.4 3.6 0.4 0.6
28-01-2019 13.1 (12:50) 10.1 (00:00) 11.6 14.17 (07:30) 8.33 (00:40) 4 1 3 0 0
27-01-2019 12.7 (13:40) 9.7 (00:00) 11.2 16.67 (03:10) 10.56 (03:20) 0.2 0 0.2 0 0
26-01-2019 13.2 (13:20) 6.1 (00:00) 9.6 13.61 (23:50) 7.22 (23:50) 3.8 0 0 0 3.8
25-01-2019 12.6 (13:50) 9.4 (00:00) 11 8.33 (12:50) 5.56 (12:50) 0.4 0.4 0 0 0
24-01-2019 12.7 (12:10) 11.4 (00:00) 12 12.5 (15:10) 8.33 (15:10) 3 1.6 0.2 0.4 0.8

Gráficas

Temp. máximas Temp. mínimas Temp. medias Precipitaciones Rachas de viento máximas Velocidades máximas media en intervalos de 10 minutos

Datos horarios

Fecha y hora oficial Temperatura (ºC) Velocidad del viento (km/h) Dirección del viento Racha (km/h) Dirección de racha Precipitación (mm) Presión (hPa) Tendencia (hPa) Humedad (%)
2019-02-22 23:00:00 16.6 9 Sudeste 18 Sudeste 0 1019.3 0.7 48
2019-02-22 22:00:00 17.2 6 Sur 15 Sur 0 1019.2 0.9 44
2019-02-22 21:00:00 18.4 8 Sudeste 17 Sur 0 1019 1.1 39
2019-02-22 20:00:00 19.1 8 Sur 14 Sur 0 1018.6 1 36
2019-02-22 19:00:00 19.9 5 Sudoeste 12 Sudoeste 0 1018.3 0.5 34
2019-02-22 18:00:00 21.9 4 Sudoeste 19 Sur 0 1017.9 0.2 33
2019-02-22 17:00:00 22.7 6 Sudeste 23 Sudeste 0 1017.6 -0.7 29
2019-02-22 16:00:00 23.3 12 Sudeste 30 Sudeste 0 1017.8 -1.2 27
2019-02-22 15:00:00 22.8 18 Sudeste 30 Sudeste 0 1017.7 -1.5 27
2019-02-22 14:00:00 22.2 12 Sudeste 27 Sudeste 0 1018.3 -1.2 30
2019-02-22 13:00:00 20 11 Sudeste 28 Sur 0 1019 -0.7 37
2019-02-22 12:00:00 17.8 6 Sudeste 16 Sudeste 0 1019.2 -0.5 50
2019-02-22 11:00:00 15.8 5 Sudeste 15 Sudeste 0 1019.5 0.1 50
2019-02-22 10:00:00 13.8 10 Sudeste 21 Sur 0 1019.7 0.4 55
2019-02-22 09:00:00 13.3 12 Sudeste 20 Sudeste 0 1019.7 0.8 56
2019-02-22 08:00:00 13.1 7 Sudeste 18 Sur 0 1019.4 1 58
2019-02-22 07:00:00 13.3 8 Sudeste 19 Sur 0 1019.3 0.5 58
2019-02-22 06:00:00 12.6 7 Sudeste 19 Sudeste 0 1018.9 -0.2 62
2019-02-22 05:00:00 12.3 7 Sudeste 16 Sur 0 1018.4 -1.2 65
2019-02-22 04:00:00 12.3 9 Sudeste 15 Sudeste 0 1018.8 -0.4 71
2019-02-22 03:00:00 12.5 7 Sudeste 13 Sudeste 0 1019.1 -0.2 74
2019-02-22 02:00:00 12.8 5 Sudeste 9 Sur 0 1019.6 0.5 74
2019-02-22 01:00:00 13.3 4 Sudeste 10 Sudeste 0 1019.2 0.8 75
2019-02-22 00:00:00 13.8 4 Sudeste 16 Sur 0 1019.3 1 75
2019-02-21 23:00:00 14.3 10 Sur 22 Sudoeste 0 1019.1 1.5 72
2019-02-21 22:00:00 14.6 6 Sur 21 Sur 0 1018.4 2.3 69
2019-02-21 21:00:00 15.1 10 Sudoeste 24 Sudoeste 0 1018.3 2.5 63
2019-02-21 20:00:00 16.5 7 Sur 16 Sudoeste 0 1017.6 3.1 55
2019-02-21 19:00:00 18 6 Sur 19 Sudoeste 0 1016.1 1.7 48
2019-02-21 18:00:00 19.2 6 Oeste 16 Sudeste 0 1015.8 1 46
2019-02-21 17:00:00 19.7 8 Sudeste 22 Sudeste 0 1014.5 -0.5 42
2019-02-21 16:00:00 19.7 9 Sudeste 27 Sur 0 1014.4 -1 42
2019-02-21 15:00:00 19.4 10 Sudeste 32 Sudeste 0 1014.8 -0.3 42
2019-02-21 14:00:00 19.1 9 Sur 34 Sur 0 1015 -0.1 44
2019-02-21 13:00:00 17.9 15 Sudeste 31 Sudeste 0 1015.4 0.2 47
2019-02-21 12:00:00 16.3 6 Este 18 Nordeste 0 1015.1 0.3 57
2019-02-21 11:00:00 14.9 10 Sudeste 22 Sudeste 0 1015.1 0.5 59
2019-02-21 10:00:00 13.2 12 Sudeste 26 Sudeste 0 1015.2 0.6 64
2019-02-21 09:00:00 11.9 11 Sudeste 21 Sudeste 0 1014.8 0.5 68
2019-02-21 08:00:00 11.4 9 Sudeste 20 Este 0 1014.6 0.3 70
2019-02-21 07:00:00 10.6 10 Sudeste 15 Sudeste 0 1014.6 0 74
2019-02-21 06:00:00 9.5 2 Norte 9 Este 0 1014.3 -0.3 80
2019-02-21 05:00:00 9.7 3 Este 6 Sudeste 0 1014.3 -0.4 80
2019-02-21 04:00:00 9.9 3 Norte 9 Oeste 0 1014.6 0.2 80
2019-02-21 03:00:00 9.8 4 Este 7 Este 0 1014.6 0.1 80
2019-02-21 02:00:00 10 4 Noroeste 7 Sudoeste 0 1014.7 0.2 80
2019-02-21 01:00:00 10.3 3 Noroeste 8 Sudoeste 0 1014.4 -0.3 79
2019-02-21 00:00:00 10.8 4 Noroeste 12 Sudeste 0 1014.5 -0.3 77
2019-02-20 23:00:00 11.2 7 Este 13 Sudeste 0 1014.5 0 74
2019-02-20 22:00:00 11.6 4 Este 8 Este 0 1014.7 0.8 70
2019-02-20 21:00:00 12.7 4 Este 13 Sur 0 1014.8 1 64
2019-02-20 20:00:00 13.3 4 Sur 13 Sur 0 1014.5 1.1 60
2019-02-20 19:00:00 14.3 7 Sur 20 Sudoeste 0 1013.9 0.7 53
2019-02-20 18:00:00 15.1 8 Sudoeste 26 Sudoeste 0 1013.8 0.4 46
2019-02-20 17:00:00 15.6 10 Sur 26 Sur 0 1013.4 -0.3 41
2019-02-20 16:00:00 16 14 Sur 29 Sudoeste 0 1013.2 -0.7 43
2019-02-20 15:00:00 15.6 13 Sudeste 24 Sur 0 1013.4 -0.6 47
2019-02-20 14:00:00 14.7 10 Sur 25 Sur 0 1013.7 -0.1 57
2019-02-20 13:00:00 13.6 8 Sur 27 Sur 0 1013.9 0.6 61
2019-02-20 12:00:00 12.6 15 Sur 29 Sur 0 1014 1.1 62
2019-02-20 11:00:00 10.9 9 Sur 21 Sur 0 1013.8 1.3 69
2019-02-20 10:00:00 8.6 7 Sudeste 22 Sudeste 0 1013.3 0.8 74
2019-02-20 09:00:00 8.1 14 Sur 26 Sur 0 1012.9 0.3 74
2019-02-20 08:00:00 7.8 11 Sudeste 23 Sudeste 0 1012.5 -0.1 77
2019-02-20 07:00:00 7.6 12 Sudeste 21 Sudeste 0 1012.5 -0.2 79
2019-02-20 06:00:00 7.4 11 Sudeste 15 Sudeste 0 1012.6 -0.1 79
2019-02-20 05:00:00 7.4 10 Sur 19 Sur 0 1012.6 0.1 80
2019-02-20 04:00:00 7.1 11 Sur 16 Sur 0 1012.7 0 82
2019-02-20 03:00:00 7.4 7 Sur 12 Sur 0 1012.7 -0.2 85
2019-02-20 02:00:00 7.5 5 Sur 11 Sur 0 1012.5 -0.5 82
2019-02-20 01:00:00 8 8 Sur 11 Sur 0 1012.7 -0.1 80
2019-02-20 00:00:00 8.7 4 Sur 11 Sur 0 1012.9 0.1 77
2019-02-19 23:00:00 9.1 6 Sur 8 Sur 0 1013 0.4 77
2019-02-19 22:00:00 9.1 4 Oeste 6 Oeste 0 1012.8 0.6 76
2019-02-19 21:00:00 9.3 5 Oeste 9 Noroeste 0 1012.8 1.1 77
2019-02-19 20:00:00 9.7 6 Noroeste 16 Oeste 0 1012.6 0.8 76
2019-02-19 19:00:00 10.3 9 Noroeste 15 Noroeste 0 1012.2 0 74
2019-02-19 18:00:00 10.7 11 Norte 18 Norte 0 1011.7 -1.1 75
2019-02-19 17:00:00 11 11 Norte 17 Norte 0 1011.8 -1.4 74
2019-02-19 16:00:00 11.7 11 Norte 19 Norte 0 1012.2 -1.8 71
2019-02-19 15:00:00 11.7 13 Norte 19 Norte 0 1012.8 -1.5 71
2019-02-19 14:00:00 12.6 8 Norte 16 Norte 0 1013.2 -1.6 69
2019-02-19 13:00:00 12.5 6 Este 14 Este 0 1014 -0.7 66
2019-02-19 12:00:00 11.7 7 Este 12 Sudeste 0 1014.3 -0.2 70
2019-02-19 11:00:00 10.6 5 Sudeste 12 Este 0 1014.8 0.6 74
2019-02-19 10:00:00 8 4 Sudeste 7 Sudeste 0 1014.7 0.3 84
2019-02-19 09:00:00 5.4 2 Sudeste 9 Sur 0 1014.5 0 93
2019-02-19 08:00:00 5.5 5 Sur 10 Sudeste 0 1014.2 -0.3 93
2019-02-19 07:00:00 5.7 4 Sudeste 11 Sudeste 0 1014.4 -0.5 92
2019-02-19 06:00:00 6 4 Sudeste 7 Sur 0 1014.5 -0.6 92
2019-02-19 05:00:00 6.6 3 Sur 9 Sur 0 1014.5 -0.7 91
2019-02-19 04:00:00 7.2 4 Sudeste 8 Sur 0 1014.9 -0.4 90
2019-02-19 03:00:00 8 0 Calma 6 Sur 0 1015.1 -0.4 87
2019-02-19 02:00:00 8.5 4 Sudeste 6 Sur 0 1015.2 -0.4 86
2019-02-19 01:00:00 9.1 2 Sur 8 Sur 0 1015.3 0.1 83
2019-02-19 00:00:00 9.6 4 Sudeste 14 Este 0 1015.5 0.9 79
2019-02-18 23:00:00 9.7 11 Nordeste 18 Norte 0 1015.6 1.4 76
2019-02-18 22:00:00 10.3 8 Norte 17 Noroeste 0 1015.2 1.6 79
2019-02-18 21:00:00 10.3 8 Noroeste 24 Norte 0 1014.6 1.4 76
2019-02-18 20:00:00 10.8 8 Norte 19 Norte 0 1014.2 1.1 77
2019-02-18 19:00:00 11 6 Noroeste 23 Noroeste 0 1013.6 0.8 73
2019-02-18 18:00:00 11.8 9 Noroeste 17 Noroeste 0 1013.2 -0.1 73
2019-02-18 17:00:00 12.3 10 Noroeste 16 Norte 0 1013.1 -0.3 70
2019-02-18 16:00:00 12.5 6 Nordeste 15 Noroeste 0 1012.8 -0.5 69
2019-02-18 15:00:00 12.2 10 Noroeste 18 Norte 0 1013.3 0.2 68
2019-02-18 14:00:00 11.7 8 Norte 17 Norte 0 1013.4 0.6 76
2019-02-18 13:00:00 11 3 Sudeste 10 Este 0 1013.3 0.8 88
2019-02-18 12:00:00 9.9 2 Sur 7 Sudoeste 0.4 1013.1 1.4 86
2019-02-18 11:00:00 9.6 5 Sudoeste 8 Sudoeste 0 1012.8 1.8 86
2019-02-18 10:00:00 9.2 4 Sudoeste 11 Sur 0 1012.5 1.5 86
2019-02-18 09:00:00 8.9 7 Sur 11 Sur 0 1011.7 0.8 88
2019-02-18 08:00:00 8.7 4 Sudeste 11 Sudeste 0 1011 0.2 90
2019-02-18 07:00:00 8.7 7 Sur 11 Sur 0 1011 0.3 89
2019-02-18 06:00:00 8.6 8 Sudeste 13 Sudeste 0.2 1010.9 -0.2 91
2019-02-18 05:00:00 8.7 0 Calma 7 Noroeste 0.2 1010.8 -0.5 92
2019-02-18 04:00:00 8.7 4 Sudeste 7 Sudeste 0.2 1010.7 -0.3 91
2019-02-18 03:00:00 8.7 0 Calma 10 Sur 0.4 1011.1 0 89
2019-02-18 02:00:00 8.9 6 Sur 19 Sur 0.4 1011.3 -0.1 91
2019-02-18 01:00:00 9 10 Sudeste 18 Sur 0.4 1011 -0.8 94
2019-02-18 00:00:00 9 3 Sudeste 13 Sudeste 0.4 1011.1 -0.4 92
2019-02-17 23:00:00 9.2 11 Sudeste 15 Sudeste 1 1011.4 0.1 93
2019-02-17 22:00:00 9.3 6 Sudeste 12 Sur 0.8 1011.8 0.9 93
2019-02-17 21:00:00 9.4 5 Sudeste 16 Sudeste 1.8 1011.5 0.8 95
2019-02-17 20:00:00 9.5 8 Sudeste 14 Sudeste 3 1011.3 0.5 94
2019-02-17 19:00:00 9.6 4 Este 8 Sudoeste 2.4 1010.9 0.3 93
2019-02-17 18:00:00 9.7 4 Sudoeste 12 Oeste 2.4 1010.7 -0.1 94
2019-02-17 17:00:00 9.9 5 Oeste 12 Oeste 3.4 1010.8 -0.4 93
2019-02-17 16:00:00 10.2 5 Noroeste 20 Oeste 1.6 1010.6 -1.6 91
2019-02-17 15:00:00 11.1 5 Noroeste 10 Noroeste 0 1010.8 -1.5 83
2019-02-17 14:00:00 11.1 3 Norte 10 Oeste 0 1011.2 -0.5 80
2019-02-17 13:00:00 11.2 8 Oeste 20 Oeste 0 1012.2 0.8 82
2019-02-17 12:00:00 11.4 14 Noroeste 27 Noroeste 0 1012.3 1 81
2019-02-17 11:00:00 13 6 Sur 20 Sur 0 1011.7 0.8 77
2019-02-17 10:00:00 12.4 10 Sur 21 Sudeste 0 1011.4 0.6 77
2019-02-17 09:00:00 12.1 11 Sudeste 28 Sur 0 1011.3 0.8 77
2019-02-17 08:00:00 12.3 11 Sur 27 Sur 0 1010.9 0.4 72
2019-02-17 07:00:00 12.6 9 Sur 27 Sur 0 1010.8 -0.1 65
2019-02-17 06:00:00 13 10 Sur 30 Sur 0 1010.5 -0.5 61
2019-02-17 05:00:00 13 9 Sur 32 Sudoeste 0 1010.5 -0.6 60
2019-02-17 04:00:00 13.5 11 Sudoeste 27 Sur 0 1010.9 -0.6 57
2019-02-17 03:00:00 13.7 14 Sur 31 Sur 0 1011 -0.7 55
2019-02-17 02:00:00 13.3 14 Sur 31 Sur 0 1011.1 -1.2 59
2019-02-17 01:00:00 12.7 6 Sur 19 Sur 0 1011.5 -1.1 63
2019-02-17 00:00:00 12 4 Este 12 Sudeste 0 1011.7 -0.9 65
2019-02-16 23:00:00 13.1 8 Sudeste 17 Sudeste 0 1012.3 0.1 57
2019-02-16 22:00:00 13.2 7 Sudeste 11 Sudeste 0 1012.6 1 66
2019-02-16 21:00:00 13.3 4 Sur 8 Sudeste 0 1012.6 1.4 74
2019-02-16 20:00:00 13.9 5 Sur 9 Noroeste 0 1012.2 0.8 70
2019-02-16 19:00:00 15 7 Noroeste 12 Noroeste 0 1011.6 -0.1 59
2019-02-16 18:00:00 16.5 0 Calma 6 Noroeste 0 1011.2 -1.5 62
2019-02-16 17:00:00 18.8 3 Nordeste 8 Este 0 1011.4 -2.3 44
2019-02-16 16:00:00 19.2 3 Este 7 Nordeste 0 1011.7 -3.1 42
2019-02-16 15:00:00 18.4 3 Nordeste 8 Nordeste 0 1012.7 -2.4 47
2019-02-16 14:00:00 18.7 3 Nordeste 8 Este 0 1013.7 -1.9 51
2019-02-16 13:00:00 19.2 5 Nordeste 11 Este 0 1014.8 -0.9 48
2019-02-16 12:00:00 17.5 3 Sudeste 11 Sudeste 0 1015.1 -0.4 50
2019-02-16 11:00:00 14.3 8 Sudeste 18 Sudeste 0 1015.6 0.2 55
2019-02-16 10:00:00 11.2 13 Sudeste 23 Sudeste 0 1015.7 0.2 59
2019-02-16 09:00:00 9.3 9 Sudeste 13 Sur 0 1015.5 -0.1 69
2019-02-16 08:00:00 8.5 7 Sur 11 Sur 0 1015.4 -1 77
2019-02-16 07:00:00 9.1 5 Sudeste 19 Sudeste 0 1015.5 -1.6 75
2019-02-16 06:00:00 9 14 Sudeste 21 Sudeste 0 1015.6 -2.1 83
2019-02-16 05:00:00 9.3 4 Sur 10 Sudeste 0 1016.4 -1.8 82
2019-02-16 04:00:00 10 2 Sudeste 7 Sudeste 0 1017.1 -1.5 81
2019-02-16 03:00:00 11 3 Sur 9 Sur 0 1017.7 -1.1 78
2019-02-16 02:00:00 11.8 5 Sudeste 9 Sur 0 1018.2 -0.9 74
2019-02-16 01:00:00 12.3 5 Sudeste 9 Sur 0 1018.6 -0.4 74
2019-02-16 00:00:00 12.6 5 Sudeste 7 Este 0 1018.8 0.4 74
2019-02-15 23:00:00 12.8 3 Nordeste 10 Nordeste 0 1019.1 1.1 76
2019-02-15 22:00:00 13.1 4 Nordeste 13 Norte 0 1019 1.6 77
2019-02-15 21:00:00 13.7 4 Noroeste 9 Nordeste 0 1018.4 1.5 75
2019-02-15 20:00:00 14.1 5 Norte 9 Noroeste 0 1018 1.1 76
2019-02-15 19:00:00 15.2 4 Norte 13 Nordeste 0 1017.4 0.4 65
2019-02-15 18:00:00 17.3 6 Norte 17 Sudoeste 0 1016.9 -0.6 50
2019-02-15 17:00:00 20 10 Sur 23 Sudeste 0 1016.9 -1.1 37
2019-02-15 16:00:00 20.6 8 Sur 23 Sur 0 1017 -1.5 37
2019-02-15 15:00:00 20.4 15 Sudoeste 28 Oeste 0 1017.5 -0.8 35
2019-02-15 14:00:00 20.2 19 Sudoeste 33 Sudoeste 0 1018 0.2 36
2019-02-15 13:00:00 19.2 7 Sudeste 14 Sudeste 0 1018.5 1.3 41
2019-02-15 12:00:00 17.3 5 Este 10 Este 0 1018.3 1.8 45
2019-02-15 11:00:00 14.8 6 Sudeste 14 Sudeste 0 1017.8 2.1 46
2019-02-15 10:00:00 13.2 9 Sudeste 14 Sudeste 0 1017.2 1.7 49
2019-02-15 09:00:00 13.1 7 Sudeste 27 Sudeste 0 1016.5 1.5 48
2019-02-15 08:00:00 12.8 10 Sudeste 21 Sudeste 0 1015.7 0.9 48
2019-02-15 07:00:00 13.4 5 Sudeste 20 Sudeste 0 1015.5 0.8 45
2019-02-15 06:00:00 13.9 15 Sur 32 Sudeste 0 1015 0.2 44
2019-02-15 05:00:00 14 14 Sudeste 23 Sudeste 0 1014.8 -0.4 44
2019-02-15 04:00:00 14.3 13 Sudeste 32 Sudeste 0 1014.7 -0.8 44
2019-02-15 03:00:00 14.2 17 Sudeste 28 Sudeste 0 1014.8 -0.5 45
2019-02-15 02:00:00 14.3 14 Sudeste 21 Sudeste 0 1015.2 -0.1 47
2019-02-15 01:00:00 14.2 13 Sudeste 17 Sudeste 0 1015.5 0.4 50
2019-02-15 00:00:00 14.9 8 Sudeste 13 Sudeste 0 1015.3 0.5 48
2019-02-14 23:00:00 15.6 8 Sudeste 14 Sur 0 1015.3 0.7 46
2019-02-14 22:00:00 15.8 9 Sudeste 15 Sudeste 0 1015.1 0.9 49
2019-02-14 21:00:00 16.2 11 Sur 15 Sudeste 0 1014.8 0.8 50
2019-02-14 20:00:00 16.2 2 Este 4 Este 0 1014.6 0.5 51
2019-02-14 19:00:00 17.7 3 Oeste 8 Oeste 0 1014.2 -0.1 46
2019-02-14 18:00:00 20.3 4 Nordeste 20 Sudeste 0 1014 -0.8 40
2019-02-14 17:00:00 21.2 10 Sur 23 Sur 0 1014.1 -1.5 33
2019-02-14 16:00:00 21.9 13 Sudeste 24 Sudeste 0 1014.3 -2.5 32
2019-02-14 15:00:00 21.2 12 Sudeste 28 Sur 0 1014.8 -2.8 34
2019-02-14 14:00:00 20.2 10 Sudeste 25 Sur 0 1015.6 -2.3 38
2019-02-14 13:00:00 18.6 7 Este 17 Sudeste 0 1016.8 -1.3 42
2019-02-14 12:00:00 16.9 8 Sudeste 21 Sudeste 0 1017.6 -0.2 41
2019-02-14 11:00:00 15.3 15 Sudeste 25 Sudeste 0 1017.9 0.3 41
2019-02-14 10:00:00 13.9 16 Sudeste 28 Sur 0 1018.1 0.3 44
2019-02-14 09:00:00 12.8 15 Sur 28 Sur 0 1017.8 -0.2 48
2019-02-14 08:00:00 12 16 Sur 26 Sudeste 0 1017.6 -0.2 50
2019-02-14 07:00:00 10.4 14 Sudeste 22 Sudeste 0 1017.8 -0.4 59
2019-02-14 06:00:00 10.1 12 Sudeste 20 Sur 0 1018 -0.5 63
2019-02-14 05:00:00 10.4 14 Sudeste 22 Sudeste 0 1017.8 -1.2 66
2019-02-14 04:00:00 10 15 Sudeste 22 Sudeste 0 1018.2 -1 70
2019-02-14 03:00:00 9.8 13 Sudeste 18 Sudeste 0 1018.5 -1.1 73
2019-02-14 02:00:00 10.3 10 Sudeste 19 Sudeste 0 1019 -0.7 71
2019-02-14 01:00:00 10.9 8 Sudeste 13 Sudeste 0 1019.2 -0.5 71
2019-02-14 00:00:00 11.2 10 Sudeste 18 Sur 0 1019.6 0 71
2019-02-13 23:00:00 11.6 9 Sur 13 Sur 0 1019.7 -0.1 69
2019-02-13 22:00:00 12.6 7 Sur 10 Sur 0 1019.7 0.1 65
2019-02-13 21:00:00 12.8 2 Este 5 Nordeste 0 1019.6 -0.1 66
2019-02-13 20:00:00 13.1 4 Norte 14 Norte 0 1019.8 0.2 65
2019-02-13 19:00:00 13.7 7 Norte 17 Norte 0 1019.6 -0.1 61
2019-02-13 18:00:00 15 8 Noroeste 14 Oeste 0 1019.7 -0.3 58
2019-02-13 17:00:00 15.6 6 Norte 13 Noroeste 0 1019.6 -1 53
2019-02-13 16:00:00 17.3 7 Nordeste 13 Nordeste 0 1019.7 -1.7 47
2019-02-13 15:00:00 17.5 7 Norte 11 Norte 0 1020 -1.4 47
2019-02-13 14:00:00 17.9 7 Norte 13 Sudeste 0 1020.6 -0.7 47
2019-02-13 13:00:00 17.3 7 Sudeste 12 Sudeste 0 1021.4 0.2 50
2019-02-13 12:00:00 15 8 Sudeste 18 Sudeste 0 1021.4 0.4 52
2019-02-13 11:00:00 12.6 8 Sudeste 14 Sudeste 0 1021.3 0.5 58
2019-02-13 10:00:00 10.7 6 Sur 13 Sur 0 1021.2 0.5 65
2019-02-13 09:00:00 8.5 8 Sudeste 17 Sudeste 0 1021 0.3 70
2019-02-13 08:00:00 7.7 8 Sur 12 Sudeste 0 1020.8 0.1 78
2019-02-13 07:00:00 7 4 Sur 9 Sudeste 0 1020.7 -0.5 86
2019-02-13 06:00:00 7.7 4 Sur 13 Sudeste 0 1020.7 -0.6 82
2019-02-13 05:00:00 7.9 8 Sudeste 11 Sur 0 1020.7 -0.9 83
2019-02-13 04:00:00 7.5 3 Sudeste 11 Sur 0 1021.2 -0.6 84
2019-02-13 03:00:00 8.2 4 Sur 13 Sur 0 1021.3 -0.6 82
2019-02-13 02:00:00 8.8 10 Sudeste 16 Sudeste 0 1021.6 -0.4 80
2019-02-13 01:00:00 8.6 3 Sudeste 10 Sudeste 0 1021.8 -0.1 78
2019-02-13 00:00:00 9.3 3 Sudeste 9 Sur 0 1021.9 0 70
2019-02-12 23:00:00 9.8 4 Sur 7 Sur 0 1022 0.1 70
2019-02-12 22:00:00 10.6 6 Sudoeste 13 Sudoeste 0 1021.9 0.3 61
2019-02-12 21:00:00 10.5 3 Sur 14 Oeste 0 1021.9 0.4 70
2019-02-12 20:00:00 11.2 8 Sudoeste 13 Sudoeste 0 1021.9 0.4 79
2019-02-12 19:00:00 11.8 6 Oeste 12 Sudoeste 0 1021.6 -0.2 61
2019-02-12 18:00:00 12.7 6 Oeste 11 Noroeste 0 1021.5 -0.8 66
2019-02-12 17:00:00 12.9 7 Noroeste 14 Noroeste 0 1021.5 -1.3 70
2019-02-12 16:00:00 14.3 6 Norte 10 Norte 0 1021.8 -1.4 67
2019-02-12 15:00:00 13.7 7 Noroeste 13 Norte 0 1022.3 -1.3 63
2019-02-12 14:00:00 14.4 7 Norte 12 Norte 0 1022.8 -0.9 64
2019-02-12 13:00:00 14.8 5 Este 13 Sudeste 0 1023.2 -0.3 56
2019-02-12 12:00:00 12.4 6 Sudeste 14 Sudeste 0 1023.6 0.4 60
2019-02-12 11:00:00 10.2 10 Sudeste 15 Sudeste 0 1023.7 0.8 65
2019-02-12 10:00:00 7.8 7 Sudeste 17 Sudeste 0 1023.5 0.4 74
2019-02-12 09:00:00 6.2 12 Sudeste 22 Sudeste 0 1023.2 0 81
2019-02-12 08:00:00 6.2 13 Sudeste 20 Sudeste 0 1022.9 -0.5 83
2019-02-12 07:00:00 6 9 Sudeste 18 Sudeste 0 1023.1 -0.7 84
2019-02-12 06:00:00 6.4 8 Sudeste 13 Sudeste 0 1023.2 -0.6 84
2019-02-12 05:00:00 6.5 7 Sur 12 Sudeste 0 1023.4 -0.5 84
2019-02-12 04:00:00 6.4 4 Sudeste 12 Sudeste 0 1023.8 0 85
2019-02-12 03:00:00 6.7 5 Sudeste 10 Sudeste 0 1023.8 0 85
2019-02-12 02:00:00 6.8 5 Sudeste 7 Este 0 1023.9 -0.2 88
2019-02-12 01:00:00 7.2 4 Este 11 Sudeste 0 1023.8 -0.5 87
2019-02-12 00:00:00 8.3 6 Sudeste 13 Sudeste 0 1023.8 -0.6 83
2019-02-11 23:00:00 8.9 7 Sudeste 15 Sudeste 0 1024.1 -0.2 79
2019-02-11 22:00:00 9.5 8 Este 17 Este 0 1024.3 0.6 75
2019-02-11 21:00:00 10.3 6 Este 26 Este 0 1024.4 0.7 74
2019-02-11 20:00:00 10.9 10 Nordeste 18 Norte 0 1024.3 0.5 74
2019-02-11 19:00:00 11.2 9 Nordeste 27 Nordeste 0 1023.7 -0.2 79
2019-02-11 18:00:00 11.4 15 Norte 28 Norte 0 1023.7 -0.6 78
2019-02-11 17:00:00 11.5 18 Norte 30 Norte 0 1023.8 -0.8 75
2019-02-11 16:00:00 12 13 Norte 23 Nordeste 0 1023.9 -1.2 71
2019-02-11 15:00:00 12.3 11 Norte 18 Norte 0 1024.3 -0.8 70
2019-02-11 14:00:00 12.5 8 Norte 14 Norte 0 1024.6 -0.1 63
2019-02-11 13:00:00 12.8 6 Nordeste 11 Este 0 1025.1 0.8 61
2019-02-11 12:00:00 12.3 4 Sudeste 10 Sudeste 0 1025.1 1.4 61
2019-02-11 11:00:00 10 6 Sudeste 12 Sudeste 0 1024.7 1.3 69
2019-02-11 10:00:00 8.2 5 Sudeste 12 Sudeste 0 1024.3 1.1 80
2019-02-11 09:00:00 6.8 7 Sur 14 Sudeste 0 1023.7 1.2 85
2019-02-11 08:00:00 6.9 4 Sudeste 12 Sur 0 1023.4 1 84
2019-02-11 07:00:00 7.1 5 Sudeste 11 Sur 0 1023.2 0.9 84
2019-02-11 06:00:00 7.5 5 Sudeste 11 Sur 0 1022.5 0.6 81
2019-02-11 05:00:00 8 6 Sudeste 9 Sudeste 0 1022.4 0.7 80
2019-02-11 04:00:00 8.6 5 Sudeste 7 Sudeste 0 1022.3 0.7 78
2019-02-11 03:00:00 9.3 0 Calma 7 Sudeste 0 1021.9 0.8 74
2019-02-11 02:00:00 10.4 4 Este 21 Oeste 0 1021.7 1 68
2019-02-11 01:00:00 10.5 9 Noroeste 16 Oeste 0 1021.6 1.4 63
2019-02-11 00:00:00 9.8 10 Noroeste 19 Noroeste 0 1021.1 1.3 67
2019-02-10 23:00:00 9.9 11 Oeste 22 Noroeste 0 1020.7 1.7 65
2019-02-10 22:00:00 10.4 11 Noroeste 21 Oeste 0 1020.2 1.8 65
2019-02-10 21:00:00 10.6 10 Noroeste 19 Oeste 0 1019.8 1.8 66
2019-02-10 20:00:00 10.1 9 Oeste 18 Oeste 0 1019 1.6 67
2019-02-10 19:00:00 10.3 12 Oeste 21 Oeste 0 1018.4 1.8 65
2019-02-10 18:00:00 11.1 13 Noroeste 24 Oeste 0 1018 2.1 61
2019-02-10 17:00:00 11.5 16 Oeste 25 Oeste 0 1017.4 1.9 60
2019-02-10 16:00:00 12.3 17 Noroeste 32 Oeste 0 1016.6 1.3 65
2019-02-10 15:00:00 12.6 18 Oeste 33 Oeste 0 1015.9 1.5 61
2019-02-10 14:00:00 12.8 19 Oeste 30 Oeste 0 1015.5 2 60
2019-02-10 13:00:00 12.5 15 Noroeste 32 Oeste 0 1015.3 2.9 66
2019-02-10 12:00:00 12.1 18 Oeste 32 Oeste 0 1014.4 3.5 70
2019-02-10 11:00:00 11.9 17 Oeste 31 Noroeste 0 1013.5 3.7 72
2019-02-10 10:00:00 11.2 18 Noroeste 36 Noroeste 0 1012.4 4.3 77
2019-02-10 09:00:00 11 24 Oeste 40 Oeste 0 1010.9 4.4 80
2019-02-10 08:00:00 11 19 Oeste 42 Oeste 0 1009.8 6.3 79
2019-02-10 07:00:00 10.5 19 Oeste 54 Oeste 0.6 1008.1 4.6 90
2019-02-10 06:00:00 11.1 31 Oeste 55 Oeste 4.6 1006.5 3.1 95
2019-02-10 05:00:00 13.5 28 Sudoeste 62 Sudoeste 1.2 1003.5 -0.5 89
2019-02-10 04:00:00 13.9 28 Sudoeste 56 Sudoeste 1.2 1003.5 -1.4 82
2019-02-10 03:00:00 14.4 30 Sudoeste 56 Sudoeste 0.2 1003.4 -2 80
2019-02-10 02:00:00 14.2 26 Sudoeste 66 Sudoeste 0.8 1004 -1.8 80
2019-02-10 01:00:00 14.3 28 Sudoeste 59 Sudoeste 0.2 1004.9 -1.1 82
2019-02-10 00:00:00 14.4 21 Sudoeste 50 Sudoeste 0 1005.4 -1.3 79
2019-02-09 23:00:00 14.5 23 Sudoeste 53 Sudoeste 0 1005.8 -0.7 77
2019-02-09 22:00:00 13.9 16 Sudoeste 47 Sudoeste 0 1006 -0.9 77
2019-02-09 21:00:00 13.8 22 Sudoeste 53 Sudoeste 0 1006.7 -0.1 76
2019-02-09 20:00:00 13.8 25 Sudoeste 50 Sudoeste 0 1006.5 -1.3 76
2019-02-09 19:00:00 13.5 19 Sur 41 Sur 0 1006.9 -1.6 79
2019-02-09 18:00:00 13.6 17 Sur 47 Sur 0 1006.8 -2.2 79
2019-02-09 17:00:00 14.1 25 Sur 54 Sudoeste 0 1007.8 -1.6 72
2019-02-09 16:00:00 14.1 21 Sudoeste 53 Sudoeste 0 1008.5 -1.8 72
2019-02-09 15:00:00 14.6 27 Sudoeste 62 Sudoeste 0 1009 -1.6 68
2019-02-09 14:00:00 14.4 26 Sudoeste 50 Sudoeste 0.2 1009.4 -1.4 72
2019-02-09 13:00:00 13.9 20 Sudoeste 43 Sur 0 1010.3 -0.5 73
2019-02-09 12:00:00 13.4 13 Sur 36 Sur 0 1010.6 -0.2 76
2019-02-09 11:00:00 13.7 15 Sur 34 Sur 0 1010.8 0.1 75
2019-02-09 10:00:00 12.8 14 Sur 32 Sur 0 1010.8 0 80
2019-02-09 09:00:00 12.8 9 Sur 23 Sudoeste 0 1010.8 -0.1 81
2019-02-09 08:00:00 12.9 13 Sur 28 Sur 0 1010.7 -0.5 80
2019-02-09 07:00:00 12.9 10 Sur 29 Sur 0 1010.8 -1 80
2019-02-09 06:00:00 12.8 9 Sur 30 Sur 0 1010.9 -0.7 82
2019-02-09 05:00:00 12.7 8 Sudoeste 25 Sudoeste 0 1011.2 -0.5 83
2019-02-09 04:00:00 12.9 13 Sudoeste 29 Sudoeste 0 1011.8 -0.3 81
2019-02-09 03:00:00 12.8 11 Sudoeste 32 Sudoeste 0 1011.6 -0.3 83
2019-02-09 02:00:00 12.7 21 Sudoeste 41 Sur 0 1011.7 0.2 83
2019-02-09 01:00:00 12.2 19 Sudoeste 33 Sudoeste 0.4 1012.1 0.8 89
2019-02-09 00:00:00 12.7 17 Sudoeste 38 Sudoeste 0 1011.9 0.8 84
2019-02-08 23:00:00 12.8 21 Sudoeste 46 Sudoeste 0 1011.5 0.8 81
2019-02-08 22:00:00 12.9 21 Sudoeste 47 Sudoeste 0 1011.3 0.7 79
2019-02-08 21:00:00 13.3 23 Sudoeste 41 Sudoeste 0 1011.1 0.5 76
2019-02-08 20:00:00 13.4 21 Sudoeste 42 Sudoeste 0 1010.7 0.3 74
2019-02-08 19:00:00 13.6 23 Sudoeste 42 Sudoeste 0 1010.6 0.4 75
2019-02-08 18:00:00 13.9 22 Sudoeste 43 Sudoeste 0 1010.6 0 75
2019-02-08 17:00:00 13.9 23 Sudoeste 47 Sudoeste 0 1010.4 -0.5 77
2019-02-08 16:00:00 13.1 16 Sudoeste 39 Sudoeste 0 1010.2 -0.6 84
2019-02-08 15:00:00 13.2 17 Sudoeste 41 Sudoeste 0 1010.6 -0.5 81
2019-02-08 14:00:00 13.3 25 Sudoeste 51 Sudoeste 0 1010.9 -0.4 72
2019-02-08 13:00:00 13.2 25 Sur 50 Sur 0 1010.8 -0.6 72
2019-02-08 12:00:00 12.9 24 Sur 51 Sur 0 1011.1 -0.7 72
2019-02-08 11:00:00 12.3 24 Sur 59 Sudoeste 0 1011.3 -1.2 72
2019-02-08 10:00:00 10.8 18 Sur 41 Sur 0 1011.4 -1.5 75
2019-02-08 09:00:00 9.7 15 Sudeste 30 Sur 0 1011.8 -1.3 79
2019-02-08 08:00:00 9.6 15 Sur 29 Sur 0 1012.5 -1 77
2019-02-08 07:00:00 9.5 12 Sur 30 Sur 0 1012.9 -1.2 77
2019-02-08 06:00:00 9.4 13 Sur 26 Sur 0 1013.1 -1.8 77
2019-02-08 05:00:00 9.4 9 Sur 18 Sur 0 1013.5 -1.7 76
2019-02-08 04:00:00 9.3 10 Sudeste 19 Sudeste 0 1014.1 -1.4 76
2019-02-08 03:00:00 10.2 10 Sur 18 Sur 0 1014.9 -1 71
2019-02-08 02:00:00 9.9 8 Sur 16 Sur 0 1015.2 -1 73
2019-02-08 01:00:00 9.8 9 Sur 19 Sur 0 1015.5 -0.9 72
2019-02-08 00:00:00 9.7 7 Sur 19 Sur 0 1015.9 -0.6 70
2019-02-07 23:00:00 10.1 12 Sudoeste 28 Sudoeste 0 1016.2 -0.5 69
2019-02-07 22:00:00 9.9 18 Sudoeste 28 Sudoeste 0 1016.4 -0.3 72
2019-02-07 21:00:00 10.5 15 Sudoeste 26 Sudoeste 0 1016.5 -0.3 69
2019-02-07 20:00:00 10.9 13 Sudoeste 24 Sudoeste 0 1016.7 -0.6 68
2019-02-07 19:00:00 11.2 11 Oeste 30 Oeste 0 1016.7 -0.5 70
2019-02-07 18:00:00 11.7 17 Oeste 29 Oeste 0 1016.8 -0.6 69
2019-02-07 17:00:00 12.5 16 Oeste 25 Oeste 0 1017.3 -0.9 65
2019-02-07 16:00:00 13.1 15 Oeste 23 Noroeste 0 1017.2 -2 63
2019-02-07 15:00:00 13.4 12 Oeste 20 Noroeste 0 1017.4 -1.4 60
2019-02-07 14:00:00 13.8 9 Oeste 19 Oeste 0 1018.2 -0.8 58
2019-02-07 13:00:00 13.3 8 Sudoeste 18 Oeste 0 1019.2 0.7 61
2019-02-07 12:00:00 12.7 9 Oeste 20 Sudoeste 0 1018.8 0.8 66
2019-02-07 11:00:00 12.2 10 Sudoeste 21 Oeste 0 1019 1.6 70
2019-02-07 10:00:00 10.2 10 Sudoeste 16 Sudoeste 0 1018.5 1.3 75
2019-02-07 09:00:00 9.7 11 Sudoeste 19 Oeste 0 1018 1.3 77
2019-02-07 08:00:00 9.8 9 Oeste 19 Oeste 0 1017.4 0.9 75
2019-02-07 07:00:00 10.6 12 Oeste 24 Noroeste 0 1017.2 0.4 76
2019-02-07 06:00:00 10.6 13 Noroeste 24 Noroeste 0 1016.7 0.5 83
2019-02-07 05:00:00 10.5 13 Sudoeste 26 Sudoeste 0.4 1016.5 0.4 92
2019-02-07 04:00:00 10.8 16 Sudoeste 35 Sudoeste 0.4 1016.8 0.3 90
2019-02-07 03:00:00 11.2 15 Sudoeste 30 Sudoeste 0 1016.2 0.1 83
2019-02-07 02:00:00 10.9 20 Sudoeste 30 Sudoeste 0 1016.1 -0.1 85
2019-02-07 01:00:00 10.7 15 Sudoeste 28 Sudoeste 0 1016.5 0.1 87
2019-02-07 00:00:00 10.7 19 Sudoeste 27 Sudoeste 0 1016.1 0.9 89
2019-02-06 23:00:00 10.2 17 Sudoeste 32 Sudoeste 0.8 1016.2 1.1 92
2019-02-06 22:00:00 10.5 15 Oeste 36 Sudoeste 1.2 1016.4 1.5 93
2019-02-06 21:00:00 12.5 14 Sudoeste 41 Sudoeste 0 1015.2 0.2 81
2019-02-06 20:00:00 12.5 12 Sudoeste 35 Sudoeste 0 1015.1 0.1 82
2019-02-06 19:00:00 12.9 15 Sudoeste 32 Sudoeste 0 1014.9 -0.1 77
2019-02-06 18:00:00 13.5 15 Sudoeste 41 Sudoeste 0 1015 -0.8 74
2019-02-06 17:00:00 13.8 13 Sudoeste 31 Sur 0 1015 -1.4 70
2019-02-06 16:00:00 13.5 15 Sudoeste 35 Sudoeste 0 1015 -2.1 72
2019-02-06 15:00:00 12.9 12 Sudoeste 28 Sudoeste 0 1015.8 -1.6 75
2019-02-06 14:00:00 12.7 7 Sudoeste 28 Sudoeste 0 1016.4 -1 77
2019-02-06 13:00:00 12.6 13 Sur 26 Sudoeste 0 1017.1 -0.6 78
2019-02-06 12:00:00 12.4 12 Sur 19 Sudeste 0 1017.4 -0.2 79
2019-02-06 11:00:00 11.8 9 Sudeste 19 Sur 0 1017.4 -0.2 81
2019-02-06 10:00:00 11.6 12 Sur 21 Sudeste 0 1017.7 -0.2 82
2019-02-06 09:00:00 11.6 9 Sudeste 14 Sudeste 0 1017.6 -0.5 82
2019-02-06 08:00:00 11.8 8 Sudeste 13 Sur 0 1017.6 -0.8 81
2019-02-06 07:00:00 12 6 Sudeste 13 Sur 0 1017.9 -1.1 79
2019-02-06 06:00:00 12.2 5 Sur 16 Sur 0 1018.1 -1.5 78
2019-02-06 05:00:00 12.2 6 Sur 16 Sur 0 1018.4 -1.4 79
2019-02-06 04:00:00 12.2 7 Sur 17 Sur 0 1019 -1.4 81
2019-02-06 03:00:00 12.2 6 Sur 13 Sur 0 1019.6 -1.2 82
2019-02-06 02:00:00 12.3 5 Sudeste 14 Sur 0 1019.8 -1.1 82
2019-02-06 01:00:00 12.4 5 Sur 13 Sur 0 1020.4 -0.4 81
2019-02-06 00:00:00 12.6 8 Sur 16 Sudoeste 0 1020.8 -0.1 80
2019-02-05 23:00:00 12.9 6 Oeste 15 Sur 0 1020.9 0.1 78
2019-02-05 22:00:00 13.2 6 Sur 17 Sur 0 1020.8 0.3 74
2019-02-05 21:00:00 13.3 7 Sur 22 Sudoeste 0 1020.9 0.7 74
2019-02-05 20:00:00 13.4 9 Sudoeste 17 Sudoeste 0 1020.8 0.6 74
2019-02-05 19:00:00 13.8 13 Sudoeste 26 Sudoeste 0 1020.5 0.1 72
2019-02-05 18:00:00 14.4 17 Sudoeste 27 Sudoeste 0 1020.2 -0.7 72
2019-02-05 17:00:00 14.9 14 Sudoeste 26 Sudoeste 0 1020.2 -1.3 71
2019-02-05 16:00:00 15.2 14 Sudoeste 33 Sudoeste 0 1020.4 -1.5 69
2019-02-05 15:00:00 14.4 10 Sur 22 Sur 0 1020.9 -1.1 76
2019-02-05 14:00:00 14 10 Sur 22 Sur 0 1021.5 -0.5 78
2019-02-05 13:00:00 13.9 9 Sur 25 Sur 0 1021.9 0.1 77
2019-02-05 12:00:00 13.8 9 Sur 24 Sur 0 1022 0.6 77
2019-02-05 11:00:00 12.8 11 Sur 22 Sur 0 1022 1 82
2019-02-05 10:00:00 11.9 11 Sur 20 Sur 0 1021.8 0.9 86
2019-02-05 09:00:00 11.5 6 Sudeste 13 Sudeste 0 1021.4 0.8 89
2019-02-05 08:00:00 11.3 8 Sudeste 23 Sur 0 1021 0.5 90
2019-02-05 07:00:00 11.7 10 Sur 22 Sur 0 1020.9 0 84
2019-02-05 06:00:00 11.7 11 Sur 24 Sur 0 1020.6 -0.4 83
2019-02-05 05:00:00 11.6 12 Sur 21 Sur 0 1020.5 -0.9 83
2019-02-05 04:00:00 11.3 7 Sudeste 16 Sudeste 0 1020.9 -0.6 87
2019-02-05 03:00:00 11.3 9 Sur 16 Sur 0 1021 -0.5 87
2019-02-05 02:00:00 11.3 12 Sur 19 Sudeste 0 1021.4 0.2 86
2019-02-05 01:00:00 11.3 9 Sur 27 Sur 0 1021.5 0.5 88
2019-02-05 00:00:00 11.6 8 Sur 21 Sur 0 1021.5 0.5 84
2019-02-04 23:00:00 11.5 12 Sur 24 Sur 0 1021.2 0.3 83
2019-02-04 22:00:00 11.6 13 Sur 35 Sudoeste 0 1021 0.5 83
2019-02-04 21:00:00 11.9 13 Sudoeste 27 Sur 0 1021 0.8 80
2019-02-04 20:00:00 11.8 12 Sur 25 Sur 0 1020.9 0.8 80
2019-02-04 19:00:00 12.3 13 Sur 28 Sur 0 1020.5 0.6 77
2019-02-04 18:00:00 12.9 12 Sur 27 Sudoeste 0 1020.2 0 75
2019-02-04 17:00:00 13.2 9 Sur 30 Sudoeste 0 1020.1 -0.4 74
2019-02-04 16:00:00 13.3 11 Sudoeste 28 Sudoeste 0 1019.9 -1 74
2019-02-04 15:00:00 13.3 14 Sudoeste 37 Sudoeste 0 1020.2 -0.7 74
2019-02-04 14:00:00 13.5 17 Sudoeste 35 Sudoeste 0 1020.5 -0.3 73
2019-02-04 13:00:00 13.2 15 Sudoeste 32 Sudoeste 0 1020.9 0.3 74
2019-02-04 12:00:00 12.1 7 Sur 22 Sur 0 1020.9 0.7 76
2019-02-04 11:00:00 10.5 10 Sudeste 17 Sudeste 0 1020.8 0.8 78
2019-02-04 10:00:00 9.8 8 Sudeste 20 Sudeste 0 1020.6 0.7 78
2019-02-04 09:00:00 9.4 8 Sudeste 14 Sur 0 1020.2 0.3 78
2019-02-04 08:00:00 9.1 4 Sur 17 Sudeste 0 1020 -0.1 77
2019-02-04 07:00:00 9 8 Sudeste 19 Sudeste 0 1019.9 -0.9 76
2019-02-04 06:00:00 9.2 14 Sudeste 21 Sudeste 0 1019.9 -1.3 74
2019-02-04 05:00:00 9.1 12 Sudeste 21 Sudeste 0 1020.1 -1.4 74
2019-02-04 04:00:00 8.8 11 Sudeste 18 Sudeste 0 1020.8 -0.5 71
2019-02-04 03:00:00 8.4 11 Sudeste 23 Sur 0 1021.2 -0.3 69
2019-02-04 02:00:00 8 12 Sur 27 Sur 0 1021.5 -0.4 68
2019-02-04 01:00:00 8 17 Sur 29 Sur 0 1021.3 -0.5 65
2019-02-04 00:00:00 8.8 8 Sur 20 Sur 0 1021.5 -0.2 58
2019-02-03 23:00:00 9.1 6 Sur 16 Sur 0 1021.9 0.1 56
2019-02-03 22:00:00 9.6 9 Sur 14 Sur 0 1021.8 0.5 58
2019-02-03 21:00:00 9.8 8 Sur 14 Sur 0 1021.7 0.3 56
2019-02-03 20:00:00 9.9 8 Sur 15 Sur 0 1021.8 0.3 59
2019-02-03 19:00:00 10.2 9 Sur 17 Sur 0 1021.3 -0.3 58
2019-02-03 18:00:00 10.7 8 Sur 16 Sur 0 1021.4 -0.7 53
2019-02-03 17:00:00 11.1 9 Sudeste 17 Sudeste 0 1021.5 -1.2 50
2019-02-03 16:00:00 11.9 6 Sur 15 Sur 0 1021.6 -1.6 50
2019-02-03 15:00:00 11.7 9 Sur 18 Sudoeste 0 1022.1 -1.2 52
2019-02-03 14:00:00 11.4 11 Sudeste 18 Este 0 1022.7 -0.1 59
2019-02-03 13:00:00 10 8 Sudeste 11 Sur 0 1023.2 0.8 70
2019-02-03 12:00:00 8 8 Sudeste 11 Sudeste 0 1023.3 1.4 76
2019-02-03 11:00:00 6.5 5 Sudeste 10 Sur 0 1022.8 1.2 80
2019-02-03 10:00:00 4.9 4 Sur 11 Sur 0 1022.4 1.3 85
2019-02-03 09:00:00 4.2 5 Sur 9 Sur 0 1021.9 1.2 86
2019-02-03 08:00:00 4.8 2 Sudeste 13 Sur 0 1021.6 1.3 84
2019-02-03 07:00:00 4.8 11 Sur 15 Sur 0 1021.1 0.8 85
2019-02-03 06:00:00 4.3 4 Sudeste 15 Sur 0 1020.7 0.8 88
2019-02-03 05:00:00 4.3 6 Sur 10 Sudeste 0 1020.3 0.8 89
2019-02-03 04:00:00 5.4 4 Sudoeste 8 Sur 0 1020.3 0.9 86
2019-02-03 03:00:00 5.8 5 Sur 14 Sur 0 1019.9 1.1 85
2019-02-03 02:00:00 5.9 9 Sur 13 Sur 0.2 1019.5 1.2 89
2019-02-03 01:00:00 6.4 6 Sur 8 Sur 0 1019.4 2.2 87
2019-02-03 00:00:00 7.2 5 Sudeste 9 Sur 0 1018.8 1.9 84
2019-02-02 23:00:00 7.7 7 Sur 15 Este 0 1018.3 2 82
2019-02-02 22:00:00 8.3 11 Nordeste 22 Nordeste 0 1017.2 1.3 78
2019-02-02 21:00:00 8.1 9 Nordeste 27 Norte 0.2 1016.9 1.9 79
2019-02-02 20:00:00 8.7 8 Noroeste 34 Norte 0 1016.3 1.7 71
2019-02-02 19:00:00 8.7 16 Noroeste 43 Noroeste 0 1015.9 2.1 69
2019-02-02 18:00:00 9.2 17 Noroeste 47 Noroeste 0.2 1015 1.4 69
2019-02-02 17:00:00 9.9 17 Noroeste 32 Oeste 0 1014.6 1.4 70
2019-02-02 16:00:00 10 17 Noroeste 33 Oeste 0 1013.8 0.8 63
2019-02-02 15:00:00 9.5 18 Norte 37 Noroeste 0 1013.6 0.8 72
2019-02-02 14:00:00 9.6 14 Norte 27 Oeste 0 1013.2 1.9 70
2019-02-02 13:00:00 9.7 9 Noroeste 44 Norte 0 1013 2.9 65
2019-02-02 12:00:00 8.9 31 Norte 47 Norte 0 1012.8 3.8 62
2019-02-02 11:00:00 10.2 13 Noroeste 38 Norte 0 1011.3 3.3 51
2019-02-02 10:00:00 9.2 18 Noroeste 41 Noroeste 0 1010.1 3.3 54
2019-02-02 09:00:00 8.7 23 Norte 48 Noroeste 0 1009 3.2 64
2019-02-02 08:00:00 8.9 25 Norte 59 Noroeste 0 1008 3.3 56
2019-02-02 07:00:00 8.9 21 Noroeste 49 Norte 0 1006.8 3 61
2019-02-02 06:00:00 7.5 13 Noroeste 69 Noroeste 0.4 1005.8 2.7 73
2019-02-02 05:00:00 7.6 21 Norte 68 Norte 2.8 1004.7 2.8 74
2019-02-02 04:00:00 8.2 19 Norte 40 Nordeste 0 1003.8 3.4 73
2019-02-02 03:00:00 6.6 29 Noroeste 67 Noroeste 0.2 1003.1 3.9 80
2019-02-02 02:00:00 8.1 27 Norte 62 Norte 0.8 1001.9 4.1 77
2019-02-02 01:00:00 8.7 23 Noroeste 65 Norte 0.2 1000.4 4.4 72
2019-02-02 00:00:00 9.1 33 Norte 59 Noroeste 0 999.2 4.9 68
2019-02-01 23:00:00 9.3 24 Noroeste 61 Noroeste 0 997.8 5.1 66
2019-02-01 22:00:00 8.9 24 Noroeste 68 Noroeste 0 996 5.2 78
2019-02-01 21:00:00 7.3 32 Noroeste 62 Noroeste 1.8 994.3 5.2 82
2019-02-01 20:00:00 8.6 26 Noroeste 75 Noroeste 0.2 992.7 5.9 76
2019-02-01 19:00:00 10 33 Noroeste 65 Noroeste 0 990.8 6.5 68
2019-02-01 18:00:00 10.4 35 Noroeste 69 Noroeste 0 989.1 6.6 67
2019-02-01 17:00:00 10.6 35 Noroeste 81 Noroeste 0 986.8 5.9 65
2019-02-01 16:00:00 10 40 Noroeste 72 Noroeste 0.2 984.3 3.3 76
2019-02-01 15:00:00 9.3 36 Noroeste 74 Noroeste 0.4 982.5 1.9 81
2019-02-01 14:00:00 7.6 39 Noroeste 82 Oeste 4.2 980.9 1.5 89
2019-02-01 13:00:00 8.1 28 Oeste 62 Oeste 0.8 981 3.1 79
2019-02-01 12:00:00 6.7 33 Oeste 67 Oeste 1.8 980.6 2.7 83
2019-02-01 11:00:00 7.4 30 Oeste 60 Oeste 1.8 979.4 2.3 80
2019-02-01 10:00:00 8.6 24 Oeste 55 Oeste 0.6 977.9 0.2 70
2019-02-01 09:00:00 8.6 31 Oeste 73 Oeste 0 977.9 -1.3 74
2019-02-01 08:00:00 6.7 17 Sudoeste 44 Sudoeste 1.6 977.1 -3.1 85
2019-02-01 07:00:00 7 12 Sudoeste 35 Sudoeste 0.4 977.7 -2.5 79
2019-02-01 06:00:00 6.4 23 Sudoeste 48 Sudoeste 0 979.2 0.1 83
2019-02-01 05:00:00 6.5 31 Sudoeste 80 Oeste 0.4 980.2 -1.2 88
2019-02-01 04:00:00 8 44 Oeste 94 Sudoeste 2.2 980.2 -2.4 81
2019-02-01 03:00:00 9.6 30 Sudoeste 66 Sudoeste 0 979.1 -4.7 71
2019-02-01 02:00:00 9.1 27 Sudoeste 49 Sudoeste 0 981.4 -3.4 75
2019-02-01 01:00:00 9.2 25 Sudoeste 43 Sudoeste 0 982.6 -2.8 77
2019-02-01 00:00:00 9.3 23 Sudoeste 40 Sudoeste 0 983.8 -2.3 80
2019-01-31 23:00:00 9.1 24 Sudoeste 50 Sudoeste 0 984.8 -1.4 78
2019-01-31 22:00:00 8.9 21 Sudoeste 43 Sudoeste 0.6 985.4 -1.1 85
2019-01-31 21:00:00 9.5 30 Sudoeste 59 Sudoeste 0.8 986.1 -0.7 85
2019-01-31 20:00:00 10.8 24 Sudoeste 48 Sudoeste 0 986.2 -1 69
2019-01-31 19:00:00 11.1 26 Sudoeste 50 Sudoeste 0 986.5 -0.8 77
2019-01-31 18:00:00 11.5 24 Sudoeste 52 Oeste 0 986.8 -0.7 78
2019-01-31 17:00:00 11.8 28 Oeste 58 Oeste 0.2 987.2 -1 81
2019-01-31 16:00:00 12.7 24 Sudoeste 45 Oeste 0 987.3 -1.2 77
2019-01-31 15:00:00 12.7 29 Oeste 50 Oeste 0 987.5 -1.3 78
2019-01-31 14:00:00 12.6 26 Oeste 59 Oeste 0 988.2 -0.8 82
2019-01-31 13:00:00 12.2 24 Oeste 51 Sudoeste 0.4 988.5 -0.6 96
2019-01-31 12:00:00 12.4 24 Oeste 56 Oeste 5.4 988.8 -0.4 97
2019-01-31 11:00:00 13.1 29 Oeste 53 Oeste 2.6 989 -0.2 94
2019-01-31 10:00:00 13.4 21 Sudoeste 49 Oeste 0.2 989.1 -0.4 94
2019-01-31 09:00:00 13.3 24 Sudoeste 45 Oeste 0.8 989.2 -0.6 95
2019-01-31 08:00:00 13.3 22 Sudoeste 55 Oeste 0 989.2 -0.5 96
2019-01-31 07:00:00 13.2 23 Oeste 60 Oeste 0.2 989.5 -0.7 97
2019-01-31 06:00:00 13.3 35 Oeste 67 Sudoeste 0.2 989.8 -0.8 97
2019-01-31 05:00:00 13.3 24 Sudoeste 50 Oeste 0.2 989.7 -1.6 96
2019-01-31 04:00:00 13.3 24 Sudoeste 50 Sudoeste 1.8 990.2 -1.7 96
2019-01-31 03:00:00 13.1 27 Sudoeste 56 Sudoeste 2 990.6 -1.6 97
2019-01-31 02:00:00 13 34 Oeste 58 Sudoeste 1 991.3 -1 97
2019-01-31 01:00:00 13 30 Oeste 62 Sudoeste 0.8 991.9 -0.7 98
2019-01-31 00:00:00 13.1 33 Oeste 66 Sudoeste 0.6 992.2 -0.8 98
2019-01-30 23:00:00 13.1 33 Oeste 60 Oeste 1.4 992.3 -1.2 97
2019-01-30 22:00:00 13.1 31 Oeste 63 Sudoeste 1.2 992.6 -1.6 97
2019-01-30 21:00:00 13.1 33 Sudoeste 54 Oeste 1.6 993 -1.3 98
2019-01-30 20:00:00 12.3 18 Sudoeste 45 Oeste 2.4 993.5 -1 97
2019-01-30 19:00:00 12.5 28 Sudoeste 53 Oeste 0.8 994.2 -0.9 94
2019-01-30 18:00:00 12.6 26 Oeste 59 Sudoeste 0.8 994.3 -2.4 94
2019-01-30 17:00:00 12.7 25 Sudoeste 51 Sudoeste 2.8 994.5 -3.8 93
2019-01-30 16:00:00 11.6 14 Sur 33 Sur 1.6 995.1 -5 90
2019-01-30 15:00:00 11.2 12 Sur 36 Sur 0.2 996.7 -4.8 85
2019-01-30 14:00:00 10.7 17 Sur 42 Sur 0.4 998.3 -4.3 85
2019-01-30 13:00:00 10.3 15 Sur 36 Sur 0 1000.1 -3.6 83
2019-01-30 12:00:00 9.7 19 Sur 39 Sudoeste 0 1001.5 -2.9 82
2019-01-30 11:00:00 9 13 Sur 27 Sur 0 1002.6 -2.4 82
2019-01-30 10:00:00 8.4 10 Sur 23 Sur 0 1003.7 -2 81
2019-01-30 09:00:00 8.3 13 Sur 22 Sur 0 1004.4 -2 75
2019-01-30 08:00:00 8.8 10 Sur 23 Oeste 0 1005 -2.1 73
2019-01-30 07:00:00 8.9 10 Sudoeste 28 Sudoeste 0 1005.7 -2 73
2019-01-30 06:00:00 8.6 18 Sudoeste 29 Sudoeste 0 1006.4 -1.9 74
2019-01-30 05:00:00 8.5 11 Sudoeste 19 Sudoeste 0 1007.1 -1.7 75
2019-01-30 04:00:00 8.7 16 Sudoeste 21 Sudoeste 0 1007.7 -1.4 74
2019-01-30 03:00:00 8.9 10 Sudoeste 21 Sudoeste 0 1008.3 -1 75
2019-01-30 02:00:00 9.2 12 Sudoeste 25 Oeste 0 1008.8 -1 72
2019-01-30 01:00:00 9.3 14 Oeste 23 Oeste 0 1009.1 -0.9 72
2019-01-30 00:00:00 9.3 17 Oeste 32 Oeste 0 1009.3 -1 70
2019-01-29 23:00:00 8.9 15 Noroeste 36 Noroeste 0.6 1009.8 -0.3 70
2019-01-29 22:00:00 9.5 9 Noroeste 39 Oeste 0 1010 0.5 70
2019-01-29 21:00:00 9.9 18 Noroeste 32 Noroeste 0 1010.3 1.2 68
2019-01-29 20:00:00 10 23 Noroeste 41 Noroeste 0 1010.1 1.4 69
2019-01-29 19:00:00 10.2 22 Noroeste 41 Noroeste 0 1009.5 1.3 64
2019-01-29 18:00:00 10.1 26 Noroeste 51 Noroeste 0 1009.1 1 72
2019-01-29 17:00:00 10.3 24 Noroeste 52 Noroeste 0 1008.7 0.7 76
2019-01-29 16:00:00 11.1 24 Noroeste 51 Noroeste 0 1008.2 0.3 77
2019-01-29 15:00:00 11.1 27 Oeste 51 Noroeste 0.4 1008.1 1.3 82
2019-01-29 14:00:00 11.7 28 Noroeste 55 Noroeste 0 1008 3.2 73
2019-01-29 13:00:00 11.6 35 Oeste 65 Noroeste 0 1007.9 2.8 80
2019-01-29 12:00:00 11.8 36 Noroeste 69 Oeste 0.8 1006.8 0.9 84
2019-01-29 11:00:00 11.8 39 Oeste 70 Oeste 2.2 1004.8 -2 96
2019-01-29 10:00:00 11.3 24 Sudoeste 52 Sudoeste 0.6 1005.1 -2.7 93
2019-01-29 09:00:00 11.1 26 Sudoeste 55 Sudoeste 0 1005.9 -2.7 90
2019-01-29 08:00:00 11.2 26 Sudoeste 45 Sudoeste 0 1006.8 -2.8 86
2019-01-29 07:00:00 11 22 Sudoeste 48 Sudoeste 0 1007.8 -2.2 88
2019-01-29 06:00:00 10.7 19 Sudoeste 40 Sudoeste 0.2 1008.6 -2.7 90
2019-01-29 05:00:00 10.6 26 Sudoeste 41 Sudoeste 0.2 1009.6 -2.7 90
2019-01-29 04:00:00 10.9 17 Sudoeste 36 Sudoeste 0 1010 -2.7 81
2019-01-29 03:00:00 10.4 19 Sudoeste 33 Sudoeste 0 1011.3 -2.4 82
2019-01-29 02:00:00 10.4 21 Sudoeste 36 Sudoeste 0 1012.3 -1.9 84
2019-01-29 01:00:00 10.8 12 Sudoeste 23 Sudoeste 0 1012.7 -1.8 81
2019-01-29 00:00:00 10.8 10 Sudoeste 23 Sudoeste 0 1013.7 -1.4 81
2019-01-28 23:00:00 10.8 11 Sudoeste 18 Sudoeste 0 1014.2 -1.3 81
2019-01-28 22:00:00 11 10 Sudoeste 21 Sudoeste 0 1014.5 -1.2 82
2019-01-28 21:00:00 11.1 9 Oeste 15 Oeste 0 1015.1 -0.8 81
2019-01-28 20:00:00 11.1 8 Oeste 15 Oeste 0 1015.5 -0.2 83
2019-01-28 19:00:00 11.1 9 Oeste 26 Oeste 0 1015.7 0 80
2019-01-28 18:00:00 11.7 14 Oeste 23 Noroeste 0 1015.9 0 76
2019-01-28 17:00:00 12.1 12 Noroeste 26 Noroeste 0 1015.7 -0.5 71
2019-01-28 16:00:00 12.3 13 Noroeste 30 Noroeste 0 1015.7 -0.4 75
2019-01-28 15:00:00 12.8 13 Noroeste 29 Noroeste 0 1015.9 -0.1 66
2019-01-28 14:00:00 12.3 13 Noroeste 25 Noroeste 0 1016.2 1.1 70
2019-01-28 13:00:00 12.8 13 Noroeste 31 Noroeste 0 1016.1 1.1 72
2019-01-28 12:00:00 11.9 17 Noroeste 30 Noroeste 0 1016 1.6 77
2019-01-28 11:00:00 11.1 13 Noroeste 29 Noroeste 0 1015.1 0.9 94
2019-01-28 10:00:00 10.9 15 Noroeste 35 Noroeste 1 1015 1.1 96
2019-01-28 09:00:00 11 21 Oeste 47 Noroeste 0 1014.4 0.1 93
2019-01-28 08:00:00 11 16 Oeste 51 Oeste 1.8 1014.2 -0.7 98
2019-01-28 07:00:00 11.5 18 Oeste 41 Oeste 0.2 1013.9 -1.5 96
2019-01-28 06:00:00 11.4 17 Oeste 48 Oeste 0 1014.3 -1.3 95
2019-01-28 05:00:00 11.3 20 Oeste 42 Noroeste 0 1014.9 -0.8 95
2019-01-28 04:00:00 11 24 Oeste 41 Oeste 0.6 1015.4 -0.9 95
2019-01-28 03:00:00 10.8 23 Oeste 42 Noroeste 0.2 1015.6 -0.4 94
2019-01-28 02:00:00 10.8 18 Oeste 50 Noroeste 0.2 1015.7 -0.7 91
2019-01-28 01:00:00 10.9 26 Oeste 50 Noroeste 0 1016.3 -0.1 89
2019-01-28 00:00:00 10.7 24 Oeste 45 Oeste 0 1016 -0.1 88
2019-01-27 23:00:00 11 24 Oeste 48 Noroeste 0 1016.4 -0.2 83
2019-01-27 22:00:00 11.1 22 Oeste 41 Oeste 0 1016.4 0.1 81
2019-01-27 21:00:00 11.2 19 Oeste 35 Noroeste 0 1016.1 -0.1 74
2019-01-27 20:00:00 11.2 22 Oeste 34 Noroeste 0 1016.6 0.3 71
2019-01-27 19:00:00 11.1 16 Noroeste 32 Noroeste 0 1016.3 0.8 70
2019-01-27 18:00:00 11.5 17 Noroeste 36 Noroeste 0 1016.2 0.4 65
2019-01-27 17:00:00 11.7 19 Noroeste 32 Noroeste 0 1016.3 0 61
2019-01-27 16:00:00 12 16 Noroeste 36 Oeste 0 1015.5 -0.8 61
2019-01-27 15:00:00 12.2 13 Noroeste 32 Norte 0 1015.8 -0.3 62
2019-01-27 14:00:00 12.5 15 Noroeste 34 Noroeste 0 1016.3 1.2 63
2019-01-27 13:00:00 12.3 15 Noroeste 42 Noroeste 0 1016.3 2 58
2019-01-27 12:00:00 11.3 15 Noroeste 45 Noroeste 0 1016.1 2.8 75
2019-01-27 11:00:00 10.8 18 Noroeste 38 Oeste 0 1015.1 2.5 78
2019-01-27 10:00:00 10.4 25 Noroeste 51 Noroeste 0.2 1014.3 2 76
2019-01-27 09:00:00 10.6 23 Noroeste 45 Oeste 0 1013.3 1 76
2019-01-27 08:00:00 10.1 22 Noroeste 41 Noroeste 0 1012.6 0.2 79
2019-01-27 07:00:00 10.5 24 Noroeste 42 Oeste 0 1012.3 -0.2 72
2019-01-27 06:00:00 10.2 23 Noroeste 49 Noroeste 0 1012.3 0.2 75
2019-01-27 05:00:00 10.6 24 Noroeste 49 Noroeste 0 1012.4 -0.1 64
2019-01-27 04:00:00 9.8 29 Noroeste 60 Noroeste 0 1012.5 0.6 73
2019-01-27 03:00:00 10.8 26 Noroeste 48 Noroeste 0 1012.1 0.5 65
2019-01-27 02:00:00 10.8 34 Noroeste 53 Noroeste 0 1012.5 1.7 83
2019-01-27 01:00:00 11 24 Oeste 44 Oeste 0 1011.9 0.9 80
2019-01-27 00:00:00 9.7 22 Oeste 49 Noroeste 3 1011.6 0 93
2019-01-26 23:00:00 10.5 17 Sudoeste 33 Sudoeste 0.8 1010.8 -1.3 95
2019-01-26 22:00:00 10.5 19 Sudoeste 34 Sudoeste 0 1011 -1.2 92
2019-01-26 21:00:00 10.1 16 Sudoeste 28 Sudoeste 0 1011.6 -0.8 93
2019-01-26 20:00:00 10.1 13 Sudoeste 34 Sudoeste 0 1012.1 0 92
2019-01-26 19:00:00 10.6 17 Oeste 35 Sudoeste 0 1012.2 -0.3 84
2019-01-26 18:00:00 11.2 17 Oeste 32 Oeste 0 1012.4 -0.9 81
2019-01-26 17:00:00 11.7 13 Oeste 23 Oeste 0 1012.1 -1.8 78
2019-01-26 16:00:00 12.3 15 Oeste 23 Oeste 0 1012.5 -1.9 75
2019-01-26 15:00:00 12.4 13 Oeste 19 Oeste 0 1013.3 -1.5 72
2019-01-26 14:00:00 12.5 11 Oeste 17 Oeste 0 1013.9 -0.7 72
2019-01-26 13:00:00 12.9 5 Este 9 Sudeste 0 1014.4 -0.6 69
2019-01-26 12:00:00 11.6 3 Sudeste 11 Sur 0 1014.8 -0.4 74
2019-01-26 11:00:00 9.6 3 Sudeste 11 Sur 0 1014.6 -0.5 80
2019-01-26 10:00:00 6.8 4 Sudeste 10 Sur 0 1015 0 90
2019-01-26 09:00:00 6.4 7 Sur 10 Sur 0 1015.2 0 94
2019-01-26 08:00:00 6.5 3 Sudeste 10 Sur 0 1015.1 -0.4 92
2019-01-26 07:00:00 6.7 4 Sudeste 9 Sur 0 1015 -0.9 91
2019-01-26 06:00:00 7.1 5 Sudeste 9 Sudeste 0 1015.2 -1 91
2019-01-26 05:00:00 7.6 2 Sudoeste 8 Sudeste 0 1015.5 -1.1 89
2019-01-26 04:00:00 8.4 0 Calma 13 Este 0 1015.9 -1.1 89
2019-01-26 03:00:00 9 8 Sudeste 13 Este 0 1016.2 -0.7 90
2019-01-26 02:00:00 9.1 3 Este 8 Este 0 1016.6 -0.6 91
2019-01-26 01:00:00 9 4 Sudeste 8 Este 0 1017 -0.4 92
2019-01-26 00:00:00 9.4 6 Este 12 Este 0 1016.9 -0.6 91
2019-01-25 23:00:00 9.9 8 Este 14 Este 0 1017.2 -0.6 89
2019-01-25 22:00:00 10.5 8 Este 17 Este 0 1017.4 -0.4 86
2019-01-25 21:00:00 10.9 10 Este 22 Nordeste 0 1017.5 0 85
2019-01-25 20:00:00 11 14 Nordeste 22 Nordeste 0 1017.8 0.3 83
2019-01-25 19:00:00 11.4 12 Nordeste 22 Nordeste 0 1017.8 0.3 78
2019-01-25 18:00:00 11.9 14 Nordeste 22 Nordeste 0 1017.5 0.1 77
2019-01-25 17:00:00 12.1 12 Nordeste 26 Nordeste 0 1017.5 -0.2 77
2019-01-25 16:00:00 11.9 15 Nordeste 26 Norte 0 1017.5 -0.6 80
2019-01-25 15:00:00 12.2 14 Nordeste 30 Nordeste 0 1017.4 -0.8 83
2019-01-25 14:00:00 12.6 14 Nordeste 24 Nordeste 0 1017.7 -0.3 77
2019-01-25 13:00:00 12.2 17 Nordeste 30 Nordeste 0 1018.1 0.5 79
2019-01-25 12:00:00 12.2 15 Nordeste 22 Nordeste 0 1018.2 1.4 82
2019-01-25 11:00:00 11.7 9 Nordeste 18 Nordeste 0 1018 1.7 85
2019-01-25 10:00:00 11.6 10 Nordeste 20 Nordeste 0 1017.6 1.5 80
2019-01-25 09:00:00 11.2 8 Nordeste 14 Este 0 1016.8 0.7 87
2019-01-25 08:00:00 11.1 6 Nordeste 11 Este 0 1016.3 0.3 91
2019-01-25 07:00:00 11.2 8 Nordeste 14 Nordeste 0 1016.1 0 91
2019-01-25 06:00:00 11.3 9 Este 16 Nordeste 0 1016.1 0 91
2019-01-25 05:00:00 11.3 10 Nordeste 23 Nordeste 0 1016 -0.2 88
2019-01-25 04:00:00 11.3 13 Nordeste 25 Norte 0 1016.1 -0.2 89
2019-01-25 03:00:00 11.2 7 Nordeste 22 Nordeste 0 1016.1 0 91
2019-01-25 02:00:00 10.8 14 Nordeste 29 Norte 0.4 1016.2 0.3 97
2019-01-25 01:00:00 11.6 18 Norte 24 Norte 0 1016.3 0.9 96
2019-01-25 00:00:00 11.5 9 Norte 26 Norte 0 1016.1 0.8 93
2019-01-24 23:00:00 11.6 21 Norte 30 Norte 0 1015.9 1.2 94
2019-01-24 22:00:00 11.7 12 Norte 35 Norte 0.6 1015.4 1.2 94
2019-01-24 21:00:00 11.5 13 Norte 32 Norte 0.2 1015.3 1.5 97
2019-01-24 20:00:00 11.7 15 Norte 42 Norte 0 1014.7 1.3 96
2019-01-24 19:00:00 11.5 21 Norte 32 Norte 0 1014.2 0.9 96
2019-01-24 18:00:00 11.6 22 Norte 39 Norte 0 1013.8 0.5 97
2019-01-24 17:00:00 12.1 22 Norte 35 Norte 0 1013.4 0.1 95
2019-01-24 16:00:00 12 20 Norte 45 Norte 0 1013.3 0.1 97
2019-01-24 15:00:00 11.9 28 Norte 44 Norte 0.4 1013.3 0.1 98
2019-01-24 14:00:00 12.6 19 Norte 32 Norte 0 1013.3 0.8 94
2019-01-24 13:00:00 12.6 18 Norte 31 Norte 0 1013.2 1.1 96
2019-01-24 12:00:00 12.6 18 Norte 36 Norte 0 1013.2 1.5 95
2019-01-24 11:00:00 12.3 19 Norte 38 Norte 0 1012.5 1.1 95
2019-01-24 10:00:00 12.1 19 Norte 35 Norte 0 1012.1 1.2 96
2019-01-24 09:00:00 12 15 Norte 32 Norte 0 1011.7 1.2 97
2019-01-24 08:00:00 11.9 22 Norte 37 Noroeste 0.2 1011.4 0.8 97
2019-01-24 07:00:00 12.1 18 Noroeste 41 Noroeste 0 1010.9 0.3 94
2019-01-24 06:00:00 12.1 15 Noroeste 39 Noroeste 0 1010.5 -0.1 97
2019-01-24 05:00:00 12.3 18 Noroeste 40 Norte 0 1010.6 -0.3 96
2019-01-24 04:00:00 12.2 17 Noroeste 39 Noroeste 0.2 1010.6 -0.4 98
2019-01-24 03:00:00 12.3 18 Noroeste 34 Noroeste 0.8 1010.6 -0.2 98
2019-01-24 02:00:00 12.2 18 Noroeste 37 Oeste 0.2 1010.9 0.3 100
2019-01-24 01:00:00 12.1 18 Noroeste 38 Oeste 0.4 1011 0.4 99
2019-01-24 00:00:00 12.2 19 Noroeste 38 Noroeste 0.2 1010.8 0.2 99